createdAt,value
2022-12-23T00:03:03.664Z,6.52
2022-12-23T00:08:11.359Z,6.40
2022-12-23T00:13:36.790Z,6.32
2022-12-23T00:18:45.168Z,6.28
2022-12-23T00:23:53.932Z,6.27
2022-12-23T00:29:00.969Z,6.21
2022-12-23T00:34:07.913Z,6.12
2022-12-23T00:39:33.689Z,6.06
2022-12-23T00:44:40.620Z,5.98
2022-12-23T00:49:47.501Z,5.87
2022-12-23T00:54:54.437Z,5.77
2022-12-23T01:00:01.370Z,5.74
2022-12-23T01:10:58.709Z,5.76
2022-12-23T01:16:17.530Z,5.74
2022-12-23T01:21:26.277Z,5.76
2022-12-23T01:26:33.263Z,5.76
2022-12-23T01:31:40.262Z,5.74
2022-12-23T01:36:47.282Z,5.66
2022-12-23T01:42:20.247Z,5.54
2022-12-23T01:47:33.221Z,5.40
2022-12-23T01:52:45.050Z,5.37
2022-12-23T01:57:52.935Z,5.29
2022-12-23T02:03:20.908Z,5.19
2022-12-23T02:08:53.695Z,5.06
2022-12-23T02:14:31.386Z,4.87
2022-12-23T02:20:06.155Z,4.72
2022-12-23T02:25:46.882Z,4.60
2022-12-23T02:31:02.706Z,4.50
2022-12-23T02:36:23.769Z,4.38
2022-12-23T02:41:38.343Z,4.24
2022-12-23T02:46:51.459Z,4.18
2022-12-23T02:52:02.312Z,4.13
2022-12-23T02:57:12.873Z,4.05
2022-12-23T03:02:20.672Z,3.98
2022-12-23T03:07:34.711Z,3.93
2022-12-23T03:12:50.359Z,3.87
2022-12-23T03:18:06.717Z,3.80
2022-12-23T03:23:24.771Z,3.73
2022-12-23T03:28:37.021Z,3.71
2022-12-23T03:33:47.619Z,3.68
2022-12-23T03:38:57.055Z,3.68
2022-12-23T03:44:07.863Z,3.69
2022-12-23T03:49:19.737Z,3.72
2022-12-23T03:54:30.716Z,3.76
2022-12-23T03:59:40.381Z,3.82
2022-12-23T04:04:59.025Z,3.88
2022-12-23T04:10:07.433Z,3.93
2022-12-23T04:15:15.019Z,4.01
2022-12-23T04:20:22.308Z,4.09
2022-12-23T04:25:29.330Z,4.16
2022-12-23T04:30:36.330Z,4.22
2022-12-23T04:35:43.177Z,4.26
2022-12-23T04:40:50.163Z,4.29
2022-12-23T04:45:57.217Z,4.34
2022-12-23T04:51:05.637Z,4.37
2022-12-23T04:56:12.691Z,4.41
2022-12-23T05:01:20.061Z,4.46
2022-12-23T05:06:27.000Z,4.52
2022-12-23T05:11:40.159Z,4.60
2022-12-23T05:16:49.502Z,4.68
2022-12-23T05:21:56.627Z,4.74
2022-12-23T05:27:03.571Z,4.80
2022-12-23T05:32:10.659Z,4.88
2022-12-23T05:37:17.687Z,4.98
2022-12-23T05:42:24.555Z,5.09
2022-12-23T05:47:31.531Z,5.18
2022-12-23T05:52:38.959Z,5.24
2022-12-23T05:57:46.016Z,5.29
2022-12-23T06:02:54.134Z,5.33
2022-12-23T06:08:01.693Z,5.36
2022-12-23T06:13:08.701Z,5.39
2022-12-23T06:18:15.842Z,5.41
2022-12-23T06:23:23.018Z,5.44
2022-12-23T06:28:30.718Z,5.47
2022-12-23T06:33:37.618Z,5.49
2022-12-23T06:38:44.663Z,5.50
2022-12-23T06:43:54.404Z,5.51
2022-12-23T06:49:04.922Z,5.52
2022-12-23T06:54:14.949Z,5.51
2022-12-23T06:59:21.947Z,5.53
2022-12-23T07:04:29.116Z,5.54
2022-12-23T07:09:36.191Z,5.57
2022-12-23T07:14:43.231Z,5.59
2022-12-23T07:19:50.122Z,5.61
2022-12-23T07:24:57.107Z,5.63
2022-12-23T07:30:04.175Z,5.65
2022-12-23T07:35:11.846Z,5.66
2022-12-23T07:40:18.840Z,5.67
2022-12-23T07:45:26.047Z,5.70
2022-12-23T07:50:33.134Z,5.74
2022-12-23T07:55:41.079Z,5.81
2022-12-23T08:00:48.943Z,5.87
2022-12-23T08:06:04.634Z,5.96
2022-12-23T08:11:13.202Z,6.06
2022-12-23T08:16:20.451Z,6.16
2022-12-23T08:21:27.800Z,6.23
2022-12-23T08:26:37.886Z,6.31
2022-12-23T08:31:44.800Z,6.38
2022-12-23T08:36:51.979Z,6.51
2022-12-23T08:41:59.545Z,6.60
2022-12-23T08:47:08.457Z,6.63
2022-12-23T08:52:15.341Z,6.66
2022-12-23T08:57:26.170Z,6.71
2022-12-23T09:02:38.233Z,6.76
2022-12-23T09:07:45.994Z,6.84
2022-12-23T09:12:58.012Z,6.94
2022-12-23T09:18:31.728Z,7.01
2022-12-23T09:23:45.160Z,7.12
2022-12-23T09:28:58.784Z,7.22
2022-12-23T09:34:06.143Z,7.27
2022-12-23T09:39:13.761Z,7.28
2022-12-23T09:45:02.961Z,7.28
2022-12-23T09:50:23.712Z,7.29
2022-12-23T09:55:44.313Z,7.32
2022-12-23T10:01:05.940Z,7.35
2022-12-23T10:06:23.884Z,7.40
2022-12-23T10:11:34.878Z,7.45
2022-12-23T10:16:47.723Z,7.50
2022-12-23T10:21:59.813Z,7.50
2022-12-23T10:27:18.962Z,7.50
2022-12-23T10:32:39.676Z,7.58
2022-12-23T10:38:13.809Z,7.67
2022-12-23T10:43:38.493Z,7.74
2022-12-23T10:48:57.621Z,7.83
2022-12-23T10:54:17.593Z,7.92
2022-12-23T10:59:28.338Z,8.02
2022-12-23T11:04:39.055Z,8.09
2022-12-23T11:09:50.613Z,8.15
2022-12-23T11:15:03.697Z,8.22
2022-12-23T11:20:27.078Z,8.28
2022-12-23T11:25:58.417Z,8.36
2022-12-23T11:31:27.223Z,8.45
2022-12-23T11:36:41.183Z,8.52
2022-12-23T11:41:53.719Z,8.55
2022-12-23T11:47:18.650Z,8.59
2022-12-23T11:52:29.023Z,8.64
2022-12-23T11:57:43.561Z,8.68
2022-12-23T12:02:54.946Z,8.73
2022-12-23T12:08:04.983Z,8.83
2022-12-23T12:13:29.585Z,8.93
2022-12-23T12:18:38.372Z,9.04
2022-12-23T12:23:48.024Z,9.11
2022-12-23T12:29:01.199Z,9.14
2022-12-23T12:34:32.111Z,9.19
2022-12-23T12:39:43.522Z,9.24
2022-12-23T12:44:53.926Z,9.31
2022-12-23T12:50:08.070Z,9.36
2022-12-23T12:55:23.908Z,9.33
2022-12-23T13:00:49.897Z,9.28
2022-12-23T13:06:14.554Z,9.23
2022-12-23T13:11:29.161Z,9.21
2022-12-23T13:16:48.369Z,9.20
2022-12-23T13:22:02.864Z,9.19
2022-12-23T13:27:17.645Z,9.16
2022-12-23T13:32:40.966Z,9.16
2022-12-23T13:38:01.514Z,9.18
2022-12-23T13:43:16.396Z,9.22
2022-12-23T13:48:38.284Z,9.24
2022-12-23T13:54:04.604Z,9.23
2022-12-23T13:59:17.048Z,9.22
2022-12-23T14:04:58.797Z,9.21
2022-12-23T14:10:24.227Z,9.21
2022-12-23T14:16:19.983Z,9.21
2022-12-23T14:21:44.726Z,9.18
2022-12-23T14:27:16.626Z,9.16
2022-12-23T14:32:37.346Z,9.12
2022-12-23T14:38:06.116Z,9.12
2022-12-23T14:43:52.742Z,9.17
2022-12-23T14:49:39.971Z,9.16
2022-12-23T14:55:21.041Z,9.00
2022-12-23T15:00:19.590Z,8.86
2022-12-23T15:05:28.245Z,8.75
2022-12-23T15:10:38.545Z,8.68
2022-12-23T15:16:00.975Z,8.64
2022-12-23T15:21:14.175Z,8.58
2022-12-23T15:26:25.346Z,8.54
2022-12-23T15:31:43.532Z,8.53
2022-12-23T15:36:58.408Z,8.52
2022-12-23T15:42:06.001Z,8.51
2022-12-23T15:47:29.275Z,8.53
2022-12-23T15:52:36.338Z,8.54
2022-12-23T15:57:50.453Z,8.55
2022-12-23T16:03:10.258Z,8.55
2022-12-23T16:08:30.319Z,8.55
2022-12-23T16:13:46.716Z,8.57
2022-12-23T16:18:59.201Z,8.57
2022-12-23T16:24:10.977Z,8.55
2022-12-23T16:29:18.265Z,8.55
2022-12-23T16:34:25.167Z,8.56
2022-12-23T16:39:33.084Z,8.55
2022-12-23T16:44:40.075Z,8.52
2022-12-23T16:49:47.739Z,8.48
2022-12-23T16:54:55.729Z,8.45
2022-12-23T17:00:05.004Z,8.43
2022-12-23T17:05:18.292Z,8.42
2022-12-23T17:10:26.033Z,8.43
2022-12-23T17:15:33.487Z,8.43
2022-12-23T17:20:43.411Z,8.42
2022-12-23T17:25:50.836Z,8.39
2022-12-23T17:31:01.989Z,8.36
2022-12-23T17:36:10.516Z,8.31
2022-12-23T17:41:23.416Z,8.27
2022-12-23T17:46:31.893Z,8.23
2022-12-23T17:51:41.336Z,8.22
2022-12-23T17:56:50.140Z,8.19
2022-12-23T18:01:57.414Z,8.15
2022-12-23T18:07:04.721Z,8.13
2022-12-23T18:12:25.134Z,8.11
2022-12-23T18:17:33.938Z,8.07
2022-12-23T18:22:43.787Z,8.03
2022-12-23T18:27:51.329Z,8.00
2022-12-23T18:32:58.867Z,8.00
2022-12-23T18:38:07.637Z,8.02
2022-12-23T18:43:23.110Z,8.05
2022-12-23T18:48:30.203Z,8.04
2022-12-23T18:53:37.137Z,8.04
2022-12-23T18:58:44.192Z,8.00
2022-12-23T19:03:51.275Z,7.99
2022-12-23T19:08:58.122Z,7.99
2022-12-23T19:14:05.058Z,7.92
2022-12-23T19:19:13.980Z,7.85
2022-12-23T19:24:20.790Z,7.79
2022-12-23T19:29:28.101Z,7.70
2022-12-23T19:34:37.779Z,7.61
2022-12-23T19:39:46.069Z,7.55
2022-12-23T19:44:53.734Z,7.52
2022-12-23T19:50:01.239Z,7.49
2022-12-23T19:55:13.180Z,7.44
2022-12-23T20:00:19.219Z,7.38
2022-12-23T20:05:27.222Z,7.32
2022-12-23T20:10:35.622Z,7.28
2022-12-23T20:15:45.981Z,7.26
2022-12-23T20:21:01.404Z,7.20
2022-12-23T20:26:09.033Z,7.18
2022-12-23T20:31:25.740Z,7.16
2022-12-23T20:36:37.614Z,7.14
2022-12-23T20:41:45.616Z,7.12
2022-12-23T20:46:52.959Z,7.07
2022-12-23T20:52:00.136Z,7.03
2022-12-23T20:57:11.194Z,6.98
2022-12-23T21:02:19.222Z,6.94
2022-12-23T21:07:26.969Z,6.90
2022-12-23T21:12:34.021Z,6.88
2022-12-23T21:17:41.001Z,6.84
2022-12-23T21:22:48.440Z,6.79
2022-12-23T21:27:55.870Z,6.76
2022-12-23T21:33:03.647Z,6.76
2022-12-23T21:38:10.610Z,6.73
2022-12-23T21:43:17.590Z,6.71
2022-12-23T21:48:24.600Z,6.70
2022-12-23T21:53:31.785Z,6.69
2022-12-23T21:58:39.136Z,6.69
2022-12-23T22:03:47.514Z,6.68
2022-12-23T22:08:55.736Z,6.65
2022-12-23T22:14:04.391Z,6.64
2022-12-23T22:19:12.846Z,6.66
2022-12-23T22:24:20.070Z,6.66
2022-12-23T22:29:27.862Z,6.69
2022-12-23T22:34:35.141Z,6.72
2022-12-23T22:39:42.351Z,6.76
2022-12-23T22:44:49.602Z,6.78
2022-12-23T22:49:56.835Z,6.80
2022-12-23T22:55:04.097Z,6.83
2022-12-23T23:00:14.065Z,6.88
2022-12-23T23:05:21.600Z,6.93
2022-12-23T23:10:29.597Z,6.95
2022-12-23T23:15:36.823Z,6.97
2022-12-23T23:20:58.527Z,6.98
2022-12-23T23:26:10.449Z,6.99
2022-12-23T23:36:48.595Z,6.98
2022-12-23T23:41:56.051Z,6.97
2022-12-23T23:47:03.421Z,6.97
2022-12-23T23:52:14.052Z,6.96
2022-12-23T23:57:29.790Z,6.97
